createdAt,value
2023-05-22T00:00:27.506Z, 30.50
2023-05-22T00:01:27.494Z, 30.49
2023-05-22T00:02:27.594Z, 30.55
2023-05-22T00:03:27.535Z, 30.55
2023-05-22T00:04:27.579Z, 30.53
2023-05-22T00:05:27.661Z, 30.52
2023-05-22T00:06:27.647Z, 30.51
2023-05-22T00:07:27.600Z, 30.50
2023-05-22T00:08:29.444Z, 30.51
2023-05-22T00:09:27.587Z, 30.49
2023-05-22T00:10:27.588Z, 30.47
2023-05-22T00:11:27.647Z, 30.46
2023-05-22T00:12:27.621Z, 30.46
2023-05-22T00:13:27.627Z, 30.44
2023-05-22T00:14:27.640Z, 30.43
2023-05-22T00:15:27.640Z, 30.42
2023-05-22T00:16:27.709Z, 30.44
2023-05-22T00:17:27.661Z, 30.43
2023-05-22T00:18:27.695Z, 30.43
2023-05-22T00:19:27.740Z, 30.43
2023-05-22T00:20:27.710Z, 30.43
2023-05-22T00:21:27.712Z, 30.42
2023-05-22T00:22:27.712Z, 30.43
2023-05-22T00:23:27.799Z, 30.41
2023-05-22T00:24:27.745Z, 30.42
2023-05-22T00:25:27.861Z, 30.41
2023-05-22T00:26:27.836Z, 30.39
2023-05-22T00:27:27.828Z, 30.39
2023-05-22T00:28:27.829Z, 30.38
2023-05-22T00:29:27.849Z, 30.39
2023-05-22T00:30:27.859Z, 30.40
2023-05-22T00:31:27.844Z, 30.40
2023-05-22T00:32:27.903Z, 30.42
2023-05-22T00:33:27.869Z, 30.42
2023-05-22T00:34:27.932Z, 30.39
2023-05-22T00:35:27.900Z, 30.37
2023-05-22T00:36:27.909Z, 30.35
2023-05-22T00:37:27.917Z, 30.36
2023-05-22T00:38:27.915Z, 30.36
2023-05-22T00:39:28.005Z, 30.32
2023-05-22T00:40:27.973Z, 30.30
2023-05-22T00:41:28.027Z, 30.31
2023-05-22T00:42:28.007Z, 30.30
2023-05-22T00:43:28.008Z, 30.29
2023-05-22T00:44:28.017Z, 30.30
2023-05-22T00:45:28.029Z, 30.32
2023-05-22T00:46:28.103Z, 30.30
2023-05-22T00:47:28.098Z, 30.32
2023-05-22T00:48:28.078Z, 30.30
2023-05-22T00:49:28.121Z, 30.27
2023-05-22T00:50:28.100Z, 30.27
2023-05-22T00:51:28.131Z, 30.27
2023-05-22T00:52:28.122Z, 30.28
2023-05-22T00:53:28.140Z, 30.26
2023-05-22T00:54:28.126Z, 30.26
2023-05-22T00:55:28.132Z, 30.25
2023-05-22T00:56:28.198Z, 30.25
2023-05-22T00:57:28.183Z, 30.26
2023-05-22T00:58:28.235Z, 30.27
2023-05-22T00:59:28.229Z, 30.27
2023-05-22T01:00:28.259Z, 30.27
2023-05-22T01:01:28.245Z, 30.28
2023-05-22T01:02:28.214Z, 30.24
2023-05-22T01:03:28.375Z, 30.23
2023-05-22T01:04:28.259Z, 30.21
2023-05-22T01:05:28.249Z, 30.22
2023-05-22T01:06:28.254Z, 30.23
2023-05-22T01:07:28.267Z, 30.22
2023-05-22T01:08:28.363Z, 30.21
2023-05-22T01:09:28.344Z, 30.20
2023-05-22T01:10:28.411Z, 30.18
2023-05-22T01:11:28.389Z, 30.18
2023-05-22T01:12:28.363Z, 30.19
2023-05-22T01:13:28.364Z, 30.22
2023-05-22T01:14:28.366Z, 30.22
2023-05-22T01:15:28.393Z, 30.21
2023-05-22T01:16:28.397Z, 30.19
2023-05-22T01:17:28.517Z, 30.19
2023-05-22T01:18:28.417Z, 30.18
2023-05-22T01:19:28.597Z, 30.18
2023-05-22T01:20:28.490Z, 30.17
2023-05-22T01:21:28.479Z, 30.18
2023-05-22T01:22:28.490Z, 30.17
2023-05-22T01:23:28.480Z, 30.18
2023-05-22T01:24:28.564Z, 30.17
2023-05-22T01:25:28.542Z, 30.16
2023-05-22T01:26:28.581Z, 30.14
2023-05-22T01:27:28.561Z, 30.10
2023-05-22T01:28:28.586Z, 30.10
2023-05-22T01:29:28.564Z, 30.11
2023-05-22T01:30:28.666Z, 30.11
2023-05-22T01:31:28.625Z, 30.12
2023-05-22T01:32:28.734Z, 30.13
2023-05-22T01:33:28.783Z, 30.11
2023-05-22T01:34:28.616Z, 30.10
2023-05-22T01:35:28.637Z, 30.12
2023-05-22T01:36:28.643Z, 30.12
2023-05-22T01:37:28.662Z, 30.13
2023-05-22T01:38:28.660Z, 30.12
2023-05-22T01:39:28.662Z, 30.11
2023-05-22T01:40:28.678Z, 30.09
2023-05-22T01:41:28.778Z, 30.10
2023-05-22T01:42:28.736Z, 30.08
2023-05-22T01:43:28.810Z, 30.06
2023-05-22T01:44:28.773Z, 30.05
2023-05-22T01:45:28.880Z, 30.03
2023-05-22T01:46:28.890Z, 30.02
2023-05-22T01:47:28.835Z, 30.04
2023-05-22T01:48:28.797Z, 30.04
2023-05-22T01:49:28.808Z, 30.02
2023-05-22T01:50:28.802Z, 29.99
2023-05-22T01:51:28.812Z, 29.99
2023-05-22T01:52:28.889Z, 29.98
2023-05-22T01:53:28.866Z, 29.97
2023-05-22T01:54:28.945Z, 29.96
2023-05-22T01:55:28.906Z, 29.98
2023-05-22T01:56:28.917Z, 30.00
2023-05-22T01:57:28.906Z, 30.01
2023-05-22T01:58:28.913Z, 29.97
2023-05-22T01:59:28.991Z, 29.97
2023-05-22T02:00:28.971Z, 29.98
2023-05-22T02:01:29.054Z, 29.99
2023-05-22T02:02:29.028Z, 29.98
2023-05-22T02:03:29.080Z, 29.98
2023-05-22T02:04:28.983Z, 29.97
2023-05-22T02:05:29.000Z, 29.97
2023-05-22T02:06:29.014Z, 29.95
2023-05-22T02:07:29.011Z, 29.94
2023-05-22T02:08:29.090Z, 29.95
2023-05-22T02:09:29.042Z, 29.92
2023-05-22T02:10:29.074Z, 29.90
2023-05-22T02:11:29.064Z, 29.91
2023-05-22T02:12:29.094Z, 29.90
2023-05-22T02:13:29.081Z, 29.91
2023-05-22T02:14:29.149Z, 29.91
2023-05-22T02:15:29.150Z, 29.91
2023-05-22T02:16:29.129Z, 29.93
2023-05-22T02:17:29.168Z, 29.94
2023-05-22T02:18:29.136Z, 29.93
2023-05-22T02:19:29.432Z, 29.91
2023-05-22T02:20:29.190Z, 29.89
2023-05-22T02:21:29.191Z, 29.88
2023-05-22T02:22:29.178Z, 29.89
2023-05-22T02:23:29.190Z, 29.90
2023-05-22T02:24:29.286Z, 29.89
2023-05-22T02:25:29.285Z, 29.90
2023-05-22T02:26:29.263Z, 29.89
2023-05-22T02:27:29.266Z, 29.88
2023-05-22T02:28:29.266Z, 29.89
2023-05-22T02:29:29.340Z, 29.88
2023-05-22T02:30:29.323Z, 29.87
2023-05-22T02:31:29.388Z, 29.86
2023-05-22T02:32:29.364Z, 29.87
2023-05-22T02:33:29.348Z, 29.86
2023-05-22T02:34:29.342Z, 29.86
2023-05-22T02:35:29.341Z, 29.85
2023-05-22T02:36:29.428Z, 29.83
2023-05-22T02:37:29.395Z, 29.84
2023-05-22T02:38:29.472Z, 29.84
2023-05-22T02:39:29.422Z, 29.82
2023-05-22T02:40:29.441Z, 29.81
2023-05-22T02:41:29.422Z, 29.81
2023-05-22T02:42:29.436Z, 29.79
2023-05-22T02:43:29.432Z, 29.80
2023-05-22T02:44:29.429Z, 29.80
2023-05-22T02:45:29.433Z, 29.79
2023-05-22T02:46:29.582Z, 29.78
2023-05-22T02:47:29.515Z, 29.79
2023-05-22T02:48:29.531Z, 29.78
2023-05-22T02:49:29.532Z, 29.76
2023-05-22T02:50:29.539Z, 29.77
2023-05-22T02:51:29.566Z, 29.75
2023-05-22T02:52:29.548Z, 29.77
2023-05-22T02:53:29.651Z, 29.80
2023-05-22T02:54:29.591Z, 29.80
2023-05-22T02:55:29.600Z, 29.78
2023-05-22T02:56:29.588Z, 29.76
2023-05-22T02:57:29.610Z, 29.74
2023-05-22T02:58:29.614Z, 29.74
2023-05-22T02:59:29.624Z, 29.73
2023-05-22T03:00:29.706Z, 29.73
2023-05-22T03:01:29.712Z, 29.74
2023-05-22T03:02:29.887Z, 29.72
2023-05-22T03:03:29.799Z, 29.71
2023-05-22T03:04:29.707Z, 29.78
2023-05-22T03:05:29.700Z, 29.82
2023-05-22T03:06:29.709Z, 29.80
2023-05-22T03:07:29.865Z, 29.77
2023-05-22T03:08:29.743Z, 29.76
2023-05-22T03:09:29.780Z, 29.77
2023-05-22T03:10:29.769Z, 29.77
2023-05-22T03:11:29.775Z, 29.77
2023-05-22T03:12:29.858Z, 29.76
2023-05-22T03:13:29.836Z, 29.75
2023-05-22T03:14:29.870Z, 29.76
2023-05-22T03:15:29.865Z, 29.78
2023-05-22T03:16:29.935Z, 29.76
2023-05-22T03:17:29.882Z, 29.73
2023-05-22T03:18:29.920Z, 29.70
2023-05-22T03:19:29.955Z, 29.71
2023-05-22T03:20:29.939Z, 29.71
2023-05-22T03:21:29.907Z, 29.71
2023-05-22T03:22:29.920Z, 29.73
2023-05-22T03:23:29.998Z, 29.72
2023-05-22T03:24:29.965Z, 29.70
2023-05-22T03:25:30.031Z, 29.71
2023-05-22T03:26:29.991Z, 29.71
2023-05-22T03:27:30.060Z, 29.68
2023-05-22T03:28:30.039Z, 29.67
2023-05-22T03:29:30.056Z, 29.69
2023-05-22T03:30:30.043Z, 29.69
2023-05-22T03:31:30.033Z, 30.04
2023-05-22T03:32:30.090Z, 30.76
2023-05-22T03:33:30.060Z, 33.32
2023-05-22T03:34:30.043Z, 35.31
2023-05-22T03:35:30.056Z, 36.78
2023-05-22T03:37:30.084Z, 38.84
2023-05-22T03:38:30.170Z, 39.48
2023-05-22T03:39:30.146Z, 40.10
2023-05-22T03:40:30.136Z, 40.74
2023-05-22T03:41:30.145Z, 41.32
2023-05-22T03:42:30.164Z, 41.87
2023-05-22T03:43:30.167Z, 42.45
2023-05-22T03:44:30.189Z, 43.04
2023-05-22T03:45:30.237Z, 43.55
2023-05-22T03:46:30.254Z, 44.07
2023-05-22T03:47:30.268Z, 44.55
2023-05-22T03:48:30.230Z, 44.98
2023-05-22T03:49:30.294Z, 45.37
2023-05-22T03:50:30.285Z, 45.74
2023-05-22T03:51:30.278Z, 46.07
2023-05-22T03:52:30.282Z, 46.42
2023-05-22T03:53:30.295Z, 46.73
2023-05-22T03:54:30.373Z, 47.02
2023-05-22T03:55:30.346Z, 47.22
2023-05-22T03:56:30.347Z, 47.36
2023-05-22T03:57:30.345Z, 47.40
2023-05-22T03:58:30.345Z, 47.38
2023-05-22T03:59:30.447Z, 47.47
2023-05-22T04:00:30.412Z, 47.52
2023-05-22T04:01:30.464Z, 47.55
2023-05-22T04:02:30.536Z, 47.63
2023-05-22T04:03:30.528Z, 47.94
2023-05-22T04:04:30.439Z, 48.42
2023-05-22T04:05:30.641Z, 48.98
2023-05-22T04:06:30.528Z, 49.07
2023-05-22T04:07:30.501Z, 49.02
2023-05-22T04:08:30.541Z, 48.92
2023-05-22T04:09:30.522Z, 48.89
2023-05-22T04:10:30.579Z, 48.86
2023-05-22T04:11:30.687Z, 48.85
2023-05-22T04:12:30.600Z, 48.87
2023-05-22T04:13:30.567Z, 48.86
2023-05-22T04:14:30.577Z, 48.84
2023-05-22T04:15:30.577Z, 48.90
2023-05-22T04:16:30.627Z, 48.98
2023-05-22T04:17:30.694Z, 49.06
2023-05-22T04:18:30.612Z, 49.06
2023-05-22T04:19:30.694Z, 48.81
2023-05-22T04:20:30.614Z, 48.48
2023-05-22T04:21:30.710Z, 48.22
2023-05-22T04:22:30.700Z, 48.05
2023-05-22T04:23:30.691Z, 47.84
2023-05-22T04:24:30.706Z, 47.74
2023-05-22T04:25:30.685Z, 47.69
2023-05-22T04:26:30.756Z, 47.82
2023-05-22T04:27:30.749Z, 48.05
2023-05-22T04:28:30.758Z, 48.42
2023-05-22T04:29:30.740Z, 48.65
2023-05-22T04:30:30.747Z, 48.76
2023-05-22T04:31:30.771Z, 48.77
2023-05-22T04:32:30.804Z, 48.85
2023-05-22T04:33:30.822Z, 49.04
2023-05-22T04:34:30.806Z, 49.20
2023-05-22T04:35:30.902Z, 49.30
2023-05-22T04:36:30.866Z, 49.32
2023-05-22T04:37:30.905Z, 49.10
2023-05-22T04:38:30.879Z, 48.80
2023-05-22T04:39:30.930Z, 48.53
2023-05-22T04:40:30.915Z, 48.33
2023-05-22T04:41:30.953Z, 48.20
2023-05-22T04:42:30.940Z, 48.02
2023-05-22T04:43:30.941Z, 47.95
2023-05-22T04:44:30.989Z, 47.82
2023-05-22T04:45:30.981Z, 47.68
2023-05-22T04:46:31.003Z, 47.64
2023-05-22T04:47:30.988Z, 47.56
2023-05-22T04:48:31.020Z, 47.47
2023-05-22T04:49:30.998Z, 47.40
2023-05-22T04:50:31.004Z, 47.32
2023-05-22T04:51:30.998Z, 47.23
2023-05-22T04:52:31.017Z, 47.19
2023-05-22T04:53:31.016Z, 47.11
2023-05-22T04:54:31.034Z, 47.07
2023-05-22T04:55:31.135Z, 47.01
2023-05-22T04:56:36.897Z, 46.86
2023-05-22T04:57:31.148Z, 46.80
2023-05-22T04:58:31.140Z, 46.78
2023-05-22T04:59:31.162Z, 46.74
2023-05-22T05:00:31.165Z, 46.68
2023-05-22T05:01:33.333Z, 46.65
2023-05-22T05:02:31.159Z, 46.64
2023-05-22T05:03:31.189Z, 46.56
2023-05-22T05:04:31.139Z, 46.62
2023-05-22T05:05:31.216Z, 46.60
2023-05-22T05:06:31.170Z, 46.58
2023-05-22T05:07:31.179Z, 46.52
2023-05-22T05:08:31.252Z, 46.52
2023-05-22T05:09:31.218Z, 46.41
2023-05-22T05:10:31.222Z, 46.37
2023-05-22T05:11:31.226Z, 46.38
2023-05-22T05:12:31.253Z, 46.35
2023-05-22T05:13:31.249Z, 46.33
2023-05-22T05:14:31.325Z, 46.33
2023-05-22T05:15:31.314Z, 46.27
2023-05-22T05:16:31.408Z, 46.23
2023-05-22T05:17:31.336Z, 46.19
2023-05-22T05:18:31.328Z, 46.17
2023-05-22T05:19:31.474Z, 46.19
2023-05-22T05:20:31.352Z, 46.21
2023-05-22T05:21:31.412Z, 46.13
2023-05-22T05:22:31.385Z, 46.02
2023-05-22T05:23:31.450Z, 46.02
2023-05-22T05:24:31.441Z, 45.97
2023-05-22T05:25:31.430Z, 45.98
2023-05-22T05:26:31.431Z, 45.98
2023-05-22T05:27:31.469Z, 45.92
2023-05-22T05:28:31.454Z, 45.95
2023-05-22T05:29:31.450Z, 45.98
2023-05-22T05:30:31.449Z, 45.94
2023-05-22T05:31:31.512Z, 45.96
2023-05-22T05:32:31.492Z, 45.97
2023-05-22T05:33:31.477Z, 45.86
2023-05-22T05:34:31.509Z, 45.87
2023-05-22T05:35:31.517Z, 45.81
2023-05-22T05:36:31.603Z, 45.87
2023-05-22T05:37:31.576Z, 45.93
2023-05-22T05:38:31.631Z, 45.89
2023-05-22T05:39:31.616Z, 45.87
2023-05-22T05:40:31.616Z, 45.87
2023-05-22T05:41:31.620Z, 45.82
2023-05-22T05:42:31.613Z, 45.77
2023-05-22T05:43:31.616Z, 45.76
2023-05-22T05:44:31.640Z, 45.73
2023-05-22T05:45:31.729Z, 45.65
2023-05-22T05:46:31.800Z, 45.65
2023-05-22T05:47:31.758Z, 45.65
2023-05-22T05:48:31.712Z, 45.60
2023-05-22T05:49:33.089Z, 45.49
2023-05-22T05:50:31.740Z, 45.48
2023-05-22T05:51:31.793Z, 45.42
2023-05-22T05:52:31.781Z, 45.42
2023-05-22T05:53:31.774Z, 45.38
2023-05-22T05:54:31.786Z, 45.38
2023-05-22T05:55:33.337Z, 45.36
2023-05-22T05:56:31.855Z, 45.32
2023-05-22T05:57:31.844Z, 45.31
2023-05-22T05:58:31.886Z, 45.23
2023-05-22T05:59:31.851Z, 45.23
2023-05-22T06:00:31.888Z, 45.21
2023-05-22T06:01:31.857Z, 45.20
2023-05-22T06:02:31.899Z, 45.16
2023-05-22T06:03:31.968Z, 45.15
2023-05-22T06:04:31.881Z, 45.15
2023-05-22T06:05:31.999Z, 45.15
2023-05-22T06:06:31.929Z, 45.14
2023-05-22T06:07:32.009Z, 45.07
2023-05-22T06:08:31.981Z, 45.04
2023-05-22T06:09:32.044Z, 44.99
2023-05-22T06:10:31.998Z, 44.93
2023-05-22T06:11:32.031Z, 44.89
2023-05-22T06:12:32.111Z, 44.87
2023-05-22T06:13:32.011Z, 44.84
2023-05-22T06:14:32.084Z, 44.76
2023-05-22T06:15:32.051Z, 44.76
2023-05-22T06:16:32.177Z, 44.72
2023-05-22T06:17:32.124Z, 44.69
2023-05-22T06:18:32.120Z, 44.69
2023-05-22T06:19:32.182Z, 44.67
2023-05-22T06:20:32.148Z, 44.63
2023-05-22T06:21:32.123Z, 44.54
2023-05-22T06:22:32.160Z, 44.56
2023-05-22T06:23:32.142Z, 44.53
2023-05-22T06:24:32.153Z, 44.54
2023-05-22T06:25:32.152Z, 44.49
2023-05-22T06:26:32.145Z, 44.49
2023-05-22T06:27:32.152Z, 44.43
2023-05-22T06:28:32.164Z, 44.38
2023-05-22T06:29:32.262Z, 44.35
2023-05-22T06:30:40.195Z, 44.38
2023-05-22T06:31:32.243Z, 44.30
2023-05-22T06:32:32.395Z, 44.29
2023-05-22T06:33:32.309Z, 44.31
2023-05-22T06:34:32.335Z, 44.28
2023-05-22T06:35:32.304Z, 44.19
2023-05-22T06:36:32.294Z, 44.19
2023-05-22T06:37:32.322Z, 44.18
2023-05-22T06:38:32.295Z, 44.19
2023-05-22T06:39:32.436Z, 44.13
2023-05-22T06:40:32.339Z, 44.12
2023-05-22T06:41:32.404Z, 44.03
2023-05-22T06:42:32.376Z, 44.02
2023-05-22T06:43:32.389Z, 44.02
2023-05-22T06:44:32.376Z, 44.02
2023-05-22T06:45:32.438Z, 44.03
2023-05-22T06:46:32.394Z, 43.93
2023-05-22T06:47:32.523Z, 43.91
2023-05-22T06:48:32.465Z, 43.91
2023-05-22T06:49:32.457Z, 43.86
2023-05-22T06:50:32.504Z, 43.82
2023-05-22T06:51:32.474Z, 43.81
2023-05-22T06:52:32.550Z, 43.76
2023-05-22T06:53:32.525Z, 43.73
2023-05-22T06:54:32.579Z, 43.67
2023-05-22T06:55:32.536Z, 43.65
2023-05-22T06:56:32.539Z, 43.62
2023-05-22T06:57:32.547Z, 43.59
2023-05-22T06:58:32.580Z, 43.62
2023-05-22T06:59:32.583Z, 43.62
2023-05-22T07:00:32.579Z, 43.56
2023-05-22T07:01:32.662Z, 43.55
2023-05-22T07:02:32.645Z, 43.50
2023-05-22T07:03:32.631Z, 43.48
2023-05-22T07:04:32.644Z, 43.47
2023-05-22T07:05:32.670Z, 43.44
2023-05-22T07:06:32.641Z, 43.42
2023-05-22T07:07:32.658Z, 43.38
2023-05-22T07:08:32.750Z, 43.29
2023-05-22T07:09:32.727Z, 43.26
2023-05-22T07:10:32.729Z, 43.24
2023-05-22T07:11:32.723Z, 43.24
2023-05-22T07:12:32.713Z, 43.25
2023-05-22T07:13:32.732Z, 43.16
2023-05-22T07:14:32.722Z, 43.15
2023-05-22T07:15:32.801Z, 43.12
2023-05-22T07:16:32.809Z, 43.10
2023-05-22T07:17:32.866Z, 43.15
2023-05-22T07:18:32.776Z, 43.10
2023-05-22T07:19:32.924Z, 43.03
2023-05-22T07:20:32.846Z, 42.97
2023-05-22T07:21:32.876Z, 42.97
2023-05-22T07:22:33.009Z, 43.00
2023-05-22T07:23:32.850Z, 42.92
2023-05-22T07:24:32.964Z, 42.90
2023-05-22T07:25:32.893Z, 42.91
2023-05-22T07:26:33.958Z, 42.93
2023-05-22T07:27:32.936Z, 42.93
2023-05-22T07:28:32.957Z, 42.86
2023-05-22T07:29:32.984Z, 42.85
2023-05-22T07:30:32.945Z, 42.79
2023-05-22T07:31:32.978Z, 42.74
2023-05-22T07:32:32.973Z, 42.71
2023-05-22T07:33:32.947Z, 42.71
2023-05-22T07:34:32.959Z, 42.66
2023-05-22T07:35:32.975Z, 42.64
2023-05-22T07:36:32.988Z, 42.63
2023-05-22T07:37:32.990Z, 42.62
2023-05-22T07:38:33.017Z, 42.61
2023-05-22T07:39:33.020Z, 42.50
2023-05-22T07:40:33.023Z, 42.51
2023-05-22T07:41:33.076Z, 42.56
2023-05-22T07:42:33.059Z, 42.52
2023-05-22T07:43:33.139Z, 42.48
2023-05-22T07:44:33.090Z, 42.46
2023-05-22T07:45:33.166Z, 42.40
2023-05-22T07:46:33.185Z, 42.36
2023-05-22T07:47:33.170Z, 42.34
2023-05-22T07:48:33.203Z, 42.39
2023-05-22T07:49:33.165Z, 42.31
2023-05-22T07:50:33.208Z, 42.30
2023-05-22T07:51:33.181Z, 42.34
2023-05-22T07:52:33.210Z, 42.24
2023-05-22T07:53:33.201Z, 42.20
2023-05-22T07:54:33.254Z, 42.22
2023-05-22T07:55:33.227Z, 42.19
2023-05-22T07:56:33.232Z, 42.16
2023-05-22T07:57:33.231Z, 42.15
2023-05-22T07:58:33.239Z, 42.15
2023-05-22T07:59:33.329Z, 42.11
2023-05-22T08:00:33.316Z, 42.13
2023-05-22T08:01:33.334Z, 42.13
2023-05-22T08:02:33.430Z, 42.11
2023-05-22T08:03:33.424Z, 42.06
2023-05-22T08:04:33.452Z, 42.02
2023-05-22T08:05:33.318Z, 42.02
2023-05-22T08:06:33.380Z, 41.95
2023-05-22T08:07:33.346Z, 41.95
2023-05-22T08:08:33.427Z, 41.93
2023-05-22T08:09:33.428Z, 41.92
2023-05-22T08:10:47.050Z, 41.90
2023-05-22T08:11:33.435Z, 41.93
2023-05-22T08:12:33.448Z, 41.81
2023-05-22T08:13:33.452Z, 41.80
2023-05-22T08:14:33.459Z, 41.76
2023-05-22T08:15:33.475Z, 41.67
2023-05-22T08:16:33.556Z, 41.71
2023-05-22T08:17:33.601Z, 41.69
2023-05-22T08:18:33.499Z, 41.67
2023-05-22T08:19:33.665Z, 41.59
2023-05-22T08:20:33.557Z, 41.54
2023-05-22T08:21:33.593Z, 41.57
2023-05-22T08:22:33.569Z, 41.63
2023-05-22T08:23:33.616Z, 41.58
2023-05-22T08:24:33.623Z, 41.57
2023-05-22T08:25:33.640Z, 41.49
2023-05-22T08:26:33.664Z, 41.48
2023-05-22T08:27:33.638Z, 41.47
2023-05-22T08:28:33.660Z, 41.39
2023-05-22T08:29:33.657Z, 41.39
2023-05-22T08:30:33.721Z, 41.38
2023-05-22T08:31:33.687Z, 41.32
2023-05-22T08:32:33.780Z, 41.32
2023-05-22T08:33:33.716Z, 41.29
2023-05-22T08:34:33.710Z, 41.27
2023-05-22T08:35:33.698Z, 41.24
2023-05-22T08:36:33.747Z, 41.20
2023-05-22T08:37:33.724Z, 41.14
2023-05-22T08:38:33.739Z, 41.14
2023-05-22T08:39:33.814Z, 41.17
2023-05-22T08:40:33.770Z, 41.19
2023-05-22T08:41:33.836Z, 41.12
2023-05-22T08:42:33.821Z, 41.12
2023-05-22T08:43:33.861Z, 41.14
2023-05-22T08:44:33.849Z, 41.08
2023-05-22T08:45:33.888Z, 41.05
2023-05-22T08:46:33.885Z, 41.13
2023-05-22T08:47:33.875Z, 41.10
2023-05-22T08:48:33.872Z, 41.09
2023-05-22T08:49:33.893Z, 41.05
2023-05-22T08:50:33.892Z, 41.03
2023-05-22T08:51:33.895Z, 41.09
2023-05-22T08:52:33.888Z, 41.07
2023-05-22T08:53:33.891Z, 41.02
2023-05-22T08:54:33.918Z, 40.95
2023-05-22T08:55:33.939Z, 40.91
2023-05-22T08:56:37.261Z, 40.95
2023-05-22T08:57:33.950Z, 40.93
2023-05-22T08:58:34.056Z, 40.87
2023-05-22T08:59:34.029Z, 40.82
2023-05-22T09:00:34.090Z, 40.76
2023-05-22T09:01:34.136Z, 40.74
2023-05-22T09:02:34.114Z, 40.71
2023-05-22T09:03:34.123Z, 40.67
2023-05-22T09:04:34.151Z, 40.64
2023-05-22T09:05:34.113Z, 40.61
2023-05-22T09:06:34.168Z, 40.60
2023-05-22T09:07:34.142Z, 40.63
2023-05-22T09:08:34.146Z, 40.60
2023-05-22T09:09:34.154Z, 40.58
2023-05-22T09:10:34.255Z, 40.51
2023-05-22T09:11:34.214Z, 40.52
2023-05-22T09:12:34.185Z, 40.47
2023-05-22T09:13:34.219Z, 40.43
2023-05-22T09:14:34.183Z, 40.35
2023-05-22T09:15:34.196Z, 40.45
2023-05-22T09:16:34.256Z, 40.44
2023-05-22T09:17:34.247Z, 40.40
2023-05-22T09:18:34.306Z, 40.34
2023-05-22T09:19:34.345Z, 40.29
2023-05-22T09:20:34.314Z, 40.30
2023-05-22T09:21:34.298Z, 40.33
2023-05-22T09:22:34.315Z, 40.27
2023-05-22T09:23:34.303Z, 40.30
2023-05-22T09:24:34.367Z, 40.29
2023-05-22T09:25:34.320Z, 40.35
2023-05-22T09:26:34.324Z, 40.25
2023-05-22T09:27:34.361Z, 40.20
2023-05-22T09:28:34.360Z, 40.18
2023-05-22T09:29:34.449Z, 40.16
2023-05-22T09:30:34.415Z, 40.21
2023-05-22T09:31:34.500Z, 40.23
2023-05-22T09:32:34.495Z, 40.17
2023-05-22T09:33:34.447Z, 40.12
2023-05-22T09:34:34.467Z, 40.11
2023-05-22T09:35:34.529Z, 40.06
2023-05-22T09:36:34.435Z, 40.08
2023-05-22T09:37:34.490Z, 40.06
2023-05-22T09:38:34.480Z, 40.03
2023-05-22T09:39:34.493Z, 39.98
2023-05-22T09:40:34.489Z, 40.02
2023-05-22T09:41:34.480Z, 39.98
2023-05-22T09:42:34.572Z, 39.91
2023-05-22T09:43:34.582Z, 39.87
2023-05-22T09:44:34.567Z, 39.81
2023-05-22T09:45:34.567Z, 39.82
2023-05-22T09:46:34.589Z, 39.81
2023-05-22T09:47:34.777Z, 39.78
2023-05-22T09:48:34.597Z, 39.79
2023-05-22T09:49:34.674Z, 39.76
2023-05-22T09:50:34.661Z, 39.77
2023-05-22T09:51:34.664Z, 39.77
2023-05-22T09:52:34.657Z, 39.77
2023-05-22T09:53:34.660Z, 39.71
2023-05-22T09:54:34.739Z, 39.66
2023-05-22T09:55:34.714Z, 39.59
2023-05-22T09:56:39.362Z, 39.62
2023-05-22T09:57:34.757Z, 39.58
2023-05-22T09:58:34.790Z, 39.59
2023-05-22T09:59:34.754Z, 39.57
2023-05-22T10:00:34.803Z, 39.54
2023-05-22T10:01:34.860Z, 39.53
2023-05-22T10:02:34.866Z, 39.54
2023-05-22T10:03:34.827Z, 39.55
2023-05-22T10:04:34.874Z, 39.53
2023-05-22T10:05:34.820Z, 39.44
2023-05-22T10:06:34.817Z, 39.38
2023-05-22T10:07:34.818Z, 39.40
2023-05-22T10:08:34.826Z, 39.42
2023-05-22T10:09:34.847Z, 39.37
2023-05-22T10:10:34.854Z, 39.36
2023-05-22T10:11:34.944Z, 39.32
2023-05-22T10:12:34.925Z, 39.31
2023-05-22T10:13:34.977Z, 39.28
2023-05-22T10:14:34.966Z, 39.25
2023-05-22T10:15:34.952Z, 39.29
2023-05-22T10:16:35.086Z, 39.33
2023-05-22T10:17:34.975Z, 39.26
2023-05-22T10:18:35.037Z, 39.22
2023-05-22T10:19:35.774Z, 39.25
2023-05-22T10:20:35.048Z, 39.22
2023-05-22T10:21:35.026Z, 39.17
2023-05-22T10:22:35.022Z, 39.12
2023-05-22T10:23:35.030Z, 39.13
2023-05-22T10:24:35.055Z, 39.12
2023-05-22T10:25:35.057Z, 39.10
2023-05-22T10:26:35.061Z, 39.08
2023-05-22T10:27:35.129Z, 39.07
2023-05-22T10:28:35.121Z, 39.10
2023-05-22T10:29:35.137Z, 39.08
2023-05-22T10:30:35.116Z, 39.10
2023-05-22T10:31:35.146Z, 39.09
2023-05-22T10:32:35.199Z, 39.03
2023-05-22T10:33:35.287Z, 39.01
2023-05-22T10:34:35.262Z, 38.99
2023-05-22T10:35:35.205Z, 38.98
2023-05-22T10:36:35.247Z, 38.97
2023-05-22T10:37:35.203Z, 38.95
2023-05-22T10:38:35.862Z, 38.92
2023-05-22T10:39:35.292Z, 38.89
2023-05-22T10:40:36.081Z, 38.87
2023-05-22T10:41:35.269Z, 38.84
2023-05-22T10:42:35.268Z, 38.87
2023-05-22T10:43:35.272Z, 38.80
2023-05-22T10:44:35.287Z, 38.77
2023-05-22T10:45:35.346Z, 38.76
2023-05-22T10:46:35.358Z, 38.73
2023-05-22T10:47:35.450Z, 38.72
2023-05-22T10:48:35.359Z, 38.75
2023-05-22T10:49:35.368Z, 38.80
2023-05-22T10:50:35.395Z, 38.76
2023-05-22T10:51:35.373Z, 38.72
2023-05-22T10:52:35.448Z, 38.69
2023-05-22T10:53:35.430Z, 38.66
2023-05-22T10:54:35.456Z, 38.61
2023-05-22T10:55:35.421Z, 38.61
2023-05-22T10:56:35.594Z, 38.59
2023-05-22T10:57:35.425Z, 38.56
2023-05-22T10:58:35.419Z, 38.53
2023-05-22T10:59:35.518Z, 38.55
2023-05-22T11:00:35.492Z, 38.51
2023-05-22T11:01:35.545Z, 38.50
2023-05-22T11:02:35.526Z, 38.45
2023-05-22T11:03:35.534Z, 38.41
2023-05-22T11:04:35.614Z, 38.41
2023-05-22T11:05:35.627Z, 38.45
2023-05-22T11:06:35.597Z, 38.44
2023-05-22T11:07:35.589Z, 38.44
2023-05-22T11:08:35.650Z, 38.40
2023-05-22T11:09:35.640Z, 38.39
2023-05-22T11:10:35.669Z, 38.44
2023-05-22T11:11:35.636Z, 38.42
2023-05-22T11:12:35.685Z, 38.43
2023-05-22T11:13:35.651Z, 38.37
2023-05-22T11:14:35.710Z, 38.30
2023-05-22T11:15:35.690Z, 38.31
2023-05-22T11:16:35.720Z, 38.30
2023-05-22T11:17:35.741Z, 38.25
2023-05-22T11:18:35.693Z, 38.23
2023-05-22T11:19:35.731Z, 38.20
2023-05-22T11:20:35.702Z, 38.18
2023-05-22T11:21:35.787Z, 38.11
2023-05-22T11:22:35.771Z, 38.16
2023-05-22T11:23:35.756Z, 38.21
2023-05-22T11:24:35.792Z, 38.15
2023-05-22T11:25:35.760Z, 38.10
2023-05-22T11:26:35.837Z, 38.12
2023-05-22T11:27:35.796Z, 38.04
2023-05-22T11:28:35.832Z, 38.07
2023-05-22T11:29:35.817Z, 38.11
2023-05-22T11:30:35.823Z, 38.08
2023-05-22T11:31:35.890Z, 38.02
2023-05-22T11:32:35.922Z, 38.03
2023-05-22T11:33:35.842Z, 37.97
2023-05-22T11:34:35.854Z, 37.96
2023-05-22T11:35:35.948Z, 37.94
2023-05-22T11:36:35.919Z, 37.95
2023-05-22T11:37:35.968Z, 37.88
2023-05-22T11:38:35.950Z, 37.84
2023-05-22T11:39:35.993Z, 37.84
2023-05-22T11:40:35.981Z, 37.88
2023-05-22T11:41:36.016Z, 37.86
2023-05-22T11:42:36.031Z, 37.83
2023-05-22T11:43:36.030Z, 37.82
2023-05-22T11:44:36.012Z, 37.87
2023-05-22T11:45:36.031Z, 37.87
2023-05-22T11:46:36.060Z, 37.85
2023-05-22T11:47:36.076Z, 37.82
2023-05-22T11:48:36.036Z, 37.79
2023-05-22T11:49:36.045Z, 37.80
2023-05-22T11:50:42.396Z, 37.83
2023-05-22T11:51:36.107Z, 37.79
2023-05-22T11:52:36.180Z, 37.71
2023-05-22T11:53:36.119Z, 37.69
2023-05-22T11:54:38.573Z, 37.70
2023-05-22T11:55:36.234Z, 37.71
2023-05-22T11:56:36.214Z, 37.67
2023-05-22T11:57:36.204Z, 37.67
2023-05-22T11:58:36.177Z, 37.63
2023-05-22T11:59:36.244Z, 37.66
2023-05-22T12:00:36.290Z, 37.64
2023-05-22T12:01:36.354Z, 37.60
2023-05-22T12:02:36.400Z, 37.58
2023-05-22T12:03:36.467Z, 37.57
2023-05-22T12:04:36.268Z, 37.60
2023-05-22T12:05:36.269Z, 37.58
2023-05-22T12:06:36.379Z, 37.55
2023-05-22T12:07:36.276Z, 37.52
2023-05-22T12:08:36.350Z, 37.50
2023-05-22T12:09:36.352Z, 37.46
2023-05-22T12:10:36.357Z, 37.48
2023-05-22T12:11:36.337Z, 37.42
2023-05-22T12:12:36.394Z, 37.44
2023-05-22T12:13:36.378Z, 37.45
2023-05-22T12:14:36.382Z, 37.44
2023-05-22T12:15:36.381Z, 37.40
2023-05-22T12:16:36.467Z, 37.37
2023-05-22T12:17:36.401Z, 37.33
2023-05-22T12:18:36.403Z, 37.35
2023-05-22T12:19:36.454Z, 37.41
2023-05-22T12:20:36.452Z, 37.37
2023-05-22T12:21:36.520Z, 37.33
2023-05-22T12:22:36.472Z, 37.28
2023-05-22T12:23:36.534Z, 37.31
2023-05-22T12:24:36.516Z, 37.28
2023-05-22T12:25:36.525Z, 37.22
2023-05-22T12:26:36.508Z, 37.18
2023-05-22T12:27:38.492Z, 37.20
2023-05-22T12:28:36.524Z, 37.18
2023-05-22T12:29:36.573Z, 37.18